createdAt,value
2022-11-24T00:04:10.317Z,86
2022-11-24T00:09:09.845Z,85
2022-11-24T00:19:10.175Z,85
2022-11-24T00:24:09.872Z,85
2022-11-24T00:29:08.953Z,85
2022-11-24T00:34:07.812Z,85
2022-11-24T00:39:07.660Z,84
2022-11-24T00:44:07.168Z,84
2022-11-24T00:49:06.629Z,85
2022-11-24T00:54:04.306Z,85
2022-11-24T00:58:49.792Z,85
2022-11-24T01:03:49.256Z,85
2022-11-24T01:08:49.034Z,85
2022-11-24T01:13:47.062Z,84
2022-11-24T01:18:46.573Z,84
2022-11-24T01:23:46.454Z,84
2022-11-24T01:28:48.183Z,83
2022-11-24T01:33:45.879Z,83
2022-11-24T01:38:42.870Z,83
2022-11-24T01:43:42.511Z,83
2022-11-24T01:48:42.065Z,83
2022-11-24T01:53:42.267Z,83
2022-11-24T01:58:40.907Z,83
2022-11-24T02:03:40.687Z,83
2022-11-24T02:08:40.600Z,83
2022-11-24T02:13:40.499Z,83
2022-11-24T02:18:39.132Z,83
2022-11-24T02:23:38.292Z,84
2022-11-24T02:28:37.381Z,84
2022-11-24T02:33:37.354Z,84
2022-11-24T02:38:36.517Z,84
2022-11-24T02:43:34.511Z,84
2022-11-24T02:48:34.030Z,84
2022-11-24T02:53:33.983Z,85
2022-11-24T02:58:32.794Z,85
2022-11-24T02:59:54.499Z,85
2022-11-24T03:04:53.586Z,85
2022-11-24T03:09:52.863Z,86
2022-11-24T03:14:52.965Z,86
2022-11-24T03:19:52.768Z,86
2022-11-24T03:24:49.963Z,87
2022-11-24T03:29:49.488Z,87
2022-11-24T03:34:49.866Z,87
2022-11-24T03:39:49.522Z,88
2022-11-24T03:44:46.644Z,88
2022-11-24T03:49:46.024Z,88
2022-11-24T03:54:45.840Z,88
2022-11-24T03:58:52.194Z,88
2022-11-24T04:03:51.278Z,88
2022-11-24T04:08:50.121Z,87
2022-11-24T04:13:49.925Z,87
2022-11-24T04:18:49.344Z,87
2022-11-24T04:23:48.240Z,87
2022-11-24T04:28:47.068Z,87
2022-11-24T04:33:47.036Z,87
2022-11-24T04:39:28.526Z,87
2022-11-24T04:43:45.658Z,86
2022-11-24T04:48:43.502Z,86
2022-11-24T04:53:42.957Z,85
2022-11-24T04:58:42.259Z,85
2022-11-24T05:03:42.379Z,85
2022-11-24T05:08:42.125Z,85
2022-11-24T05:13:40.785Z,85
2022-11-24T05:18:40.487Z,85
2022-11-24T05:23:39.798Z,85
2022-11-24T05:28:37.782Z,84
2022-11-24T05:33:36.892Z,84
2022-11-24T05:38:36.504Z,84
2022-11-24T05:43:36.578Z,86
2022-11-24T05:48:34.754Z,88
2022-11-24T05:53:34.145Z,89
2022-11-24T05:58:33.681Z,89
2022-11-24T05:59:55.435Z,89
2022-11-24T06:04:54.988Z,90
2022-11-24T06:09:52.198Z,91
2022-11-24T06:14:51.537Z,92
2022-11-24T06:19:51.178Z,93
2022-11-24T06:24:51.751Z,93
2022-11-24T06:29:49.918Z,94
2022-11-24T06:34:49.155Z,94
2022-11-24T06:39:48.973Z,94
2022-11-24T06:44:48.664Z,95
2022-11-24T06:49:47.677Z,95
2022-11-24T06:54:47.133Z,95
2022-11-24T06:58:50.825Z,95
2022-11-24T07:03:51.039Z,96
2022-11-24T07:08:49.851Z,96
2022-11-24T07:13:48.756Z,96
2022-11-24T07:18:47.504Z,96
2022-11-24T07:23:47.885Z,95
2022-11-24T07:28:46.782Z,95
2022-11-24T07:33:44.820Z,95
2022-11-24T07:38:44.052Z,95
2022-11-24T07:43:45.363Z,95
2022-11-24T07:48:43.930Z,95
2022-11-24T07:53:44.134Z,94
2022-11-24T07:58:41.409Z,94
2022-11-24T08:03:42.047Z,94
2022-11-24T08:08:41.394Z,94
2022-11-24T08:13:41.556Z,93
2022-11-24T08:18:38.562Z,93
2022-11-24T08:23:38.476Z,93
2022-11-24T08:28:38.576Z,93
2022-11-24T08:33:37.132Z,92
2022-11-24T08:38:36.788Z,92
2022-11-24T08:43:36.905Z,91
2022-11-24T08:48:36.231Z,91
2022-11-24T08:53:34.992Z,90
2022-11-24T08:58:34.257Z,90
2022-11-24T09:03:33.782Z,89
2022-11-24T09:08:33.835Z,89
2022-11-24T09:13:34.097Z,89
2022-11-24T09:18:31.618Z,90
2022-11-24T09:23:31.500Z,90
2022-11-24T09:28:31.163Z,90
2022-11-24T09:33:30.858Z,90
2022-11-24T09:38:29.346Z,90
2022-11-24T09:43:29.146Z,91
2022-11-24T09:48:28.719Z,91
2022-11-24T09:53:29.236Z,91
2022-11-24T09:58:21.536Z,91
2022-11-24T10:03:30.130Z,92
2022-11-24T10:08:20.028Z,92
2022-11-24T10:13:20.672Z,92
2022-11-24T10:18:21.124Z,90
2022-11-24T10:23:22.067Z,90
2022-11-24T10:28:21.365Z,89
2022-11-24T10:33:30.073Z,88
2022-11-24T10:38:20.671Z,89
2022-11-24T10:43:21.828Z,86
2022-11-24T10:48:20.769Z,85
2022-11-24T10:53:20.614Z,85
2022-11-24T10:58:20.177Z,84
2022-11-24T10:59:42.655Z,83
2022-11-24T11:04:42.566Z,84
2022-11-24T11:09:43.079Z,83
2022-11-24T11:14:40.426Z,84
2022-11-24T11:19:53.348Z,82
2022-11-24T11:24:39.961Z,82
2022-11-24T11:34:39.724Z,83
2022-11-24T11:39:48.593Z,84
2022-11-24T11:44:38.732Z,84
2022-11-24T11:49:38.824Z,82
2022-11-24T11:54:37.509Z,81
2022-11-24T11:59:08.501Z,82
2022-11-24T12:04:09.490Z,81
2022-11-24T12:09:21.649Z,80
2022-11-24T12:14:08.198Z,79
2022-11-24T12:19:07.936Z,79
2022-11-24T12:24:08.179Z,79
2022-11-24T12:29:08.985Z,77
2022-11-24T12:34:07.388Z,75
2022-11-24T12:39:07.470Z,75
2022-11-24T12:44:07.582Z,73
2022-11-24T12:49:07.444Z,72
2022-11-24T12:54:06.581Z,71
2022-11-24T12:58:50.367Z,71
2022-11-24T13:03:49.865Z,71
2022-11-24T13:08:49.625Z,71
2022-11-24T13:13:49.877Z,71
2022-11-24T13:18:48.308Z,69
2022-11-24T13:23:47.882Z,70
2022-11-24T13:29:13.276Z,70
2022-11-24T13:33:47.431Z,71
2022-11-24T13:38:46.940Z,72
2022-11-24T13:43:46.728Z,71
2022-11-24T13:48:46.919Z,71
2022-11-24T13:53:46.252Z,72
2022-11-24T13:58:44.798Z,72
2022-11-24T14:04:28.437Z,71
2022-11-24T14:08:44.487Z,69
2022-11-24T14:13:44.416Z,69
2022-11-24T14:18:44.257Z,70
2022-11-24T14:23:43.179Z,72
2022-11-24T14:28:43.000Z,72
2022-11-24T14:33:42.537Z,72
2022-11-24T14:38:42.453Z,72
2022-11-24T14:43:39.835Z,72
2022-11-24T14:48:39.793Z,72
2022-11-24T14:53:39.656Z,72
2022-11-24T14:58:43.121Z,72
2022-11-24T15:00:01.413Z,72
2022-11-24T15:05:05.044Z,72
2022-11-24T15:10:00.448Z,72
2022-11-24T15:15:00.481Z,72
2022-11-24T15:20:00.308Z,72
2022-11-24T15:24:58.449Z,72
2022-11-24T15:29:58.375Z,72
2022-11-24T15:34:58.034Z,73
2022-11-24T15:39:57.139Z,73
2022-11-24T15:44:56.721Z,73
2022-11-24T15:49:56.145Z,74
2022-11-24T15:54:56.383Z,75
2022-11-24T15:59:28.903Z,77
2022-11-24T16:04:27.437Z,79
2022-11-24T16:09:26.942Z,80
2022-11-24T16:14:26.941Z,81
2022-11-24T16:19:27.118Z,82
2022-11-24T16:24:26.699Z,84
2022-11-24T16:29:26.363Z,85
2022-11-24T16:34:25.551Z,86
2022-11-24T16:39:24.813Z,87
2022-11-24T16:44:23.918Z,88
2022-11-24T16:49:13.558Z,88
2022-11-24T16:54:13.008Z,89
2022-11-24T16:58:58.375Z,90
2022-11-24T17:03:58.385Z,89
2022-11-24T17:08:58.161Z,88
2022-11-24T17:13:56.389Z,88
2022-11-24T17:18:56.269Z,87
2022-11-24T17:23:56.216Z,88
2022-11-24T17:28:55.096Z,88
2022-11-24T17:33:54.822Z,88
2022-11-24T17:38:54.622Z,88
2022-11-24T17:43:54.517Z,88
2022-11-24T17:48:54.862Z,89
2022-11-24T17:53:52.877Z,89
2022-11-24T17:58:52.874Z,90
2022-11-24T18:03:54.350Z,90
2022-11-24T18:08:52.632Z,90
2022-11-24T18:14:01.822Z,91
2022-11-24T18:19:00.652Z,91
2022-11-24T18:23:50.563Z,92
2022-11-24T18:28:50.833Z,92
2022-11-24T18:33:50.858Z,93
2022-11-24T18:38:49.386Z,93
2022-11-24T18:43:48.744Z,94
2022-11-24T18:48:48.317Z,94
2022-11-24T18:58:46.506Z,95
2022-11-24T19:03:49.615Z,95
2022-11-24T19:08:46.569Z,95
2022-11-24T19:13:46.553Z,95
2022-11-24T19:18:53.559Z,96
2022-11-24T19:23:44.292Z,96
2022-11-24T19:28:49.198Z,96
2022-11-24T19:33:44.020Z,96
2022-11-24T19:38:43.794Z,96
2022-11-24T19:43:43.235Z,97
2022-11-24T19:48:43.291Z,97
2022-11-24T19:53:42.737Z,97
2022-11-24T19:58:42.945Z,97
2022-11-24T20:03:43.722Z,97
2022-11-24T20:08:40.904Z,97
2022-11-24T20:13:40.716Z,97
2022-11-24T20:18:42.943Z,98
2022-11-24T20:23:40.939Z,98
2022-11-24T20:28:40.002Z,98
2022-11-24T20:33:39.567Z,98
2022-11-24T20:38:39.121Z,98
2022-11-24T20:43:39.456Z,98
2022-11-24T20:48:38.136Z,98
2022-11-24T20:53:38.279Z,98
2022-11-24T20:58:37.040Z,98
2022-11-24T21:03:43.406Z,98
2022-11-24T21:08:36.014Z,98
2022-11-24T21:13:35.765Z,99
2022-11-24T21:18:35.625Z,99
2022-11-24T21:23:36.189Z,99
2022-11-24T21:28:34.409Z,99
2022-11-24T21:33:34.170Z,99
2022-11-24T21:38:33.869Z,99
2022-11-24T21:43:33.904Z,99
2022-11-24T21:48:33.060Z,99
2022-11-24T21:53:32.780Z,99
2022-11-24T21:58:27.993Z,99
2022-11-24T22:03:28.250Z,99
2022-11-24T22:08:28.676Z,99
2022-11-24T22:13:26.867Z,99
2022-11-24T22:18:26.538Z,99
2022-11-24T22:23:26.902Z,99
2022-11-24T22:28:26.937Z,99
2022-11-24T22:33:26.708Z,100
2022-11-24T22:38:26.357Z,100
2022-11-24T22:43:25.647Z,100
2022-11-24T22:48:24.872Z,100
2022-11-24T22:53:24.748Z,100
2022-11-24T22:58:24.668Z,100
2022-11-24T23:03:25.288Z,100
2022-11-24T23:08:24.809Z,100
2022-11-24T23:13:25.473Z,100
2022-11-24T23:18:12.044Z,100
2022-11-24T23:23:12.051Z,100
2022-11-24T23:28:11.739Z,100
2022-11-24T23:33:11.142Z,100
2022-11-24T23:38:10.433Z,100
2022-11-24T23:43:10.165Z,100
2022-11-24T23:48:10.085Z,100
2022-11-24T23:53:10.482Z,100
2022-11-24T23:58:08.831Z,100
2022-11-24T23:59:29.885Z,100
